Time;durP1;ratioP1;P1;durP2;ratioP2;P2;SDS_P1;SDS_P2;PMS_P1;PMS_P2;Temp;Humidity;BMP_temperature;BMP_pressure;BME280_temperature;BME280_humidity;BME280_pressure;Samples;Min_cycle;Max_cycle;Signal;HPM_P1;HPM_P2
2022/01/13 00:01:50;;;;;;;33.60;23.98;;;;;;;-1.65;89.87;98893.06;5091428;28;20427;-65
2022/01/13 00:04:16;;;;;;;34.42;24.30;;;;;;;-1.91;90.37;98893.00;5090927;28;20506;-66
2022/01/13 00:06:42;;;;;;;34.05;24.35;;;;;;;-1.60;90.38;98888.47;5087066;28;20461;-65
2022/01/13 00:09:08;;;;;;;32.15;24.20;;;;;;;-1.56;90.27;98884.78;5074116;28;20442;-64
2022/01/13 00:11:34;;;;;;;33.05;24.60;;;;;;;-1.49;90.27;98873.97;5087025;28;20425;-65
2022/01/13 00:17:07;;;;;;;32.75;24.10;;;;;;;-1.18;88.02;98890.00;5091410;28;20399;-63
2022/01/13 00:22:01;;;;;;;33.38;23.77;;;;;;;-1.53;89.73;98884.56;5077678;28;20447;-63
2022/01/13 00:24:27;;;;;;;34.10;23.98;;;;;;;-1.50;89.32;98887.75;5095368;28;20795;-63
2022/01/13 00:26:54;;;;;;;32.63;23.48;;;;;;;-1.46;89.86;98888.41;5095509;28;20385;-63
2022/01/13 00:29:26;;;;;;;35.00;24.10;;;;;;;-1.32;89.36;98893.47;5094988;28;20473;-63
2022/01/13 00:31:51;;;;;;;31.98;22.80;;;;;;;-1.20;88.39;98895.22;5077190;28;20855;-64
2022/01/13 00:34:16;;;;;;;33.10;23.35;;;;;;;-1.34;89.09;98903.03;5095310;28;20401;-63
2022/01/13 00:36:42;;;;;;;32.17;22.43;;;;;;;-1.48;89.87;98910.81;5095153;28;20389;-63
2022/01/13 00:39:09;;;;;;;30.70;22.03;;;;;;;-1.33;90.25;98907.25;5094665;28;20405;-63
2022/01/13 00:41:35;;;;;;;30.13;22.52;;;;;;;-1.18;88.33;98908.84;5095225;28;20414;-63
2022/01/13 00:44:04;;;;;;;31.08;22.77;;;;;;;-0.89;87.00;98912.03;5095064;28;20795;-64
2022/01/13 00:46:40;;;;;;;32.92;23.13;;;;;;;-0.87;86.24;98915.31;5076270;28;20397;-64
2022/01/13 00:49:07;;;;;;;30.85;23.02;;;;;;;-0.96;87.90;98915.94;5095019;28;20401;-64
2022/01/13 00:51:32;;;;;;;32.83;23.40;;;;;;;-0.98;87.81;98920.38;5095102;28;20397;-64
2022/01/13 00:54:03;;;;;;;33.47;23.70;;;;;;;-1.10;88.13;98922.00;5076713;28;20394;-64
2022/01/13 00:56:29;;;;;;;32.92;23.45;;;;;;;-0.75;86.92;98921.41;5094546;28;20393;-64
2022/01/13 00:58:54;;;;;;;33.27;22.67;;;;;;;-1.05;87.93;98916.53;5095074;28;20846;-65
2022/01/13 01:01:19;;;;;;;30.87;22.17;;;;;;;-0.98;87.98;98922.94;5094518;28;20849;-64
2022/01/13 01:03:45;;;;;;;32.53;22.87;;;;;;;-0.94;87.32;98921.81;5094673;28;20384;-64
2022/01/13 01:06:10;;;;;;;28.42;22.55;;;;;;;-1.18;88.32;98915.72;5076524;28;20797;-64
2022/01/13 01:08:36;;;;;;;28.77;22.30;;;;;;;-1.19;89.47;98914.06;5093636;28;20484;-64
2022/01/13 01:11:03;;;;;;;31.83;23.40;;;;;;;-1.28;89.18;98911.16;5094438;28;20467;-64
2022/01/13 01:13:32;;;;;;;33.10;23.52;;;;;;;-1.08;88.96;98921.91;5094430;28;20398;-64
2022/01/13 01:16:01;;;;;;;29.42;22.77;;;;;;;-0.91;88.14;98932.75;5093848;28;20401;-64
2022/01/13 01:28:59;;;;;;;31.10;22.67;;;;;;;-0.89;88.28;98948.88;5094238;28;20401;-67
2022/01/13 01:31:29;;;;;;;29.17;22.70;;;;;;;-0.87;87.99;98948.78;5093829;28;20782;-64
2022/01/13 01:34:28;;;;;;;32.17;22.90;;;;;;;-0.97;87.82;98943.44;5094265;28;20390;-64
2022/01/13 01:36:44;;;;;;;29.90;22.23;;;;;;;-0.81;87.39;98945.81;5091990;28;20958;-64
2022/01/13 01:39:10;;;;;;;29.40;22.60;;;;;;;-0.52;86.61;98943.84;5093382;28;20414;-64
2022/01/13 01:41:38;;;;;;;30.53;23.13;;;;;;;-0.64;87.08;98944.69;5093982;28;20587;-64
2022/01/13 01:44:09;;;;;;;30.83;22.90;;;;;;;-0.78;87.76;98942.22;5094209;28;20390;-64
2022/01/13 01:46:36;;;;;;;26.55;20.83;;;;;;;-0.79;88.49;98943.16;5093845;28;20872;-64
2022/01/13 01:49:14;;;;;;;28.98;22.00;;;;;;;-0.91;88.93;98945.59;5093360;28;20859;-67
2022/01/13 01:51:40;;;;;;;27.77;21.27;;;;;;;-0.85;89.32;98946.94;5093679;28;20390;-64
2022/01/13 01:54:06;;;;;;;28.83;22.60;;;;;;;-0.53;87.10;98942.22;5093860;28;20870;-64
2022/01/13 01:56:31;;;;;;;31.70;23.10;;;;;;;-0.58;87.28;98936.53;5093878;28;20874;-64
2022/01/13 01:59:01;;;;;;;30.93;23.23;;;;;;;-0.68;87.64;98944.06;5093485;28;20382;-64
2022/01/13 02:01:28;;;;;;;30.17;23.25;;;;;;;-0.36;87.31;98949.63;5093204;28;20442;-64
2022/01/13 02:03:53;;;;;;;30.98;23.88;;;;;;;-0.28;86.60;98951.69;5093443;28;20409;-64
2022/01/13 02:06:19;;;;;;;32.10;23.47;;;;;;;-0.61;87.92;98944.47;5093132;28;20447;-64
2022/01/13 02:08:45;;;;;;;31.00;23.23;;;;;;;-0.55;87.77;98936.31;5092629;28;20416;-64
2022/01/13 02:11:10;;;;;;;30.20;23.90;;;;;;;-0.45;87.41;98934.81;5093351;28;20394;-65
2022/01/13 02:13:39;;;;;;;31.30;24.23;;;;;;;-0.65;87.71;98933.56;5092920;28;20386;-64
2022/01/13 02:16:16;;;;;;;32.63;24.48;;;;;;;-0.79;88.51;98928.53;5093327;28;20408;-64
2022/01/13 02:18:42;;;;;;;33.28;25.05;;;;;;;-0.78;88.48;98929.34;5076950;28;20386;-64
2022/01/13 02:21:07;;;;;;;28.77;22.17;;;;;;;-0.82;88.28;98920.16;5092237;28;20418;-64
2022/01/13 02:23:34;;;;;;;31.30;22.40;;;;;;;-0.92;89.19;98914.81;5074583;28;20401;-64
2022/01/13 02:26:00;;;;;;;29.40;21.45;;;;;;;-0.81;88.22;98919.25;5093214;28;20495;-64
2022/01/13 02:28:27;;;;;;;28.73;21.30;;;;;;;-0.72;87.81;98908.31;5075199;28;20474;-64
2022/01/13 02:30:52;;;;;;;27.90;21.38;;;;;;;-0.72;87.64;98905.75;5092123;28;20475;-65
2022/01/13 02:33:18;;;;;;;28.85;21.85;;;;;;;-0.90;88.26;98902.69;5075810;28;20830;-66
2022/01/13 02:35:43;;;;;;;29.73;21.47;;;;;;;-1.17;88.66;98899.38;5092529;28;20382;-64
2022/01/13 02:38:10;;;;;;;29.07;21.27;;;;;;;-1.23;89.29;98895.44;5092747;28;20412;-64
2022/01/13 02:40:36;;;;;;;29.67;21.37;;;;;;;-0.93;89.04;98903.69;5092602;28;20413;-64
2022/01/13 02:43:02;;;;;;;30.27;21.27;;;;;;;-0.76;88.03;98894.00;5092798;28;20393;-64
2022/01/13 02:45:33;;;;;;;29.35;21.42;;;;;;;-0.92;87.77;98899.38;5092621;28;20398;-64
2022/01/13 02:50:43;;;;;;;29.55;21.27;;;;;;;-0.83;87.54;98909.03;5091973;28;20398;-64
2022/01/13 02:53:09;;;;;;;28.77;21.20;;;;;;;-0.69;87.36;98908.13;5092602;28;20854;-64
2022/01/13 02:55:34;;;;;;;27.20;20.27;;;;;;;-1.01;88.81;98890.53;5092619;28;20477;-64
2022/01/13 02:58:00;;;;;;;26.50;19.80;;;;;;;-1.01;89.01;98889.69;5092553;28;20753;-64
2022/01/13 03:00:26;;;;;;;27.80;20.67;;;;;;;-0.70;88.09;98891.03;5091599;28;20938;-64
2022/01/13 03:02:51;;;;;;;28.23;20.10;;;;;;;-0.93;88.73;98888.25;5092253;28;20470;-64
2022/01/13 03:05:17;;;;;;;26.80;20.17;;;;;;;-1.12;89.70;98880.13;5092238;28;20846;-64
2022/01/13 03:07:43;;;;;;;25.67;20.27;;;;;;;-0.98;89.92;98889.50;5092178;28;20481;-64
2022/01/13 03:10:10;;;;;;;26.10;20.42;;;;;;;-1.04;89.51;98884.75;5092243;28;20402;-64
2022/01/13 03:12:39;;;;;;;28.42;21.08;;;;;;;-0.97;90.02;98880.84;5072474;28;20406;-64
2022/01/13 03:15:05;;;;;;;25.43;19.53;;;;;;;-0.88;89.24;98890.50;5072327;28;20408;-64
2022/01/13 03:17:30;;;;;;;26.02;19.65;;;;;;;-0.99;89.83;98886.09;5071976;28;20749;-64
2022/01/13 03:19:56;;;;;;;25.77;18.70;;;;;;;-1.12;90.27;98881.88;5071770;28;20765;-64
2022/01/13 03:22:21;;;;;;;24.97;19.07;;;;;;;-1.02;90.51;98882.91;5071134;28;20484;-64
2022/01/13 03:24:47;;;;;;;24.23;19.20;;;;;;;-0.92;89.79;98887.34;5092366;28;20382;-64
2022/01/13 03:27:19;;;;;;;24.02;18.85;;;;;;;-1.11;90.52;98886.91;5092164;28;20390;-64
2022/01/13 03:29:45;;;;;;;27.05;19.52;;;;;;;-0.92;89.72;98881.34;5092026;28;20459;-64
2022/01/13 03:32:10;;;;;;;26.50;19.50;;;;;;;-0.84;89.85;98886.84;5075697;28;20490;-64
2022/01/13 03:34:36;;;;;;;26.67;20.23;;;;;;;-0.94;90.18;98881.44;5071754;28;20387;-64
2022/01/13 03:37:01;;;;;;;24.77;19.23;;;;;;;-0.85;89.45;98872.31;5085806;28;20802;-64
2022/01/13 03:39:28;;;;;;;27.80;18.93;;;;;;;-0.72;89.16;98865.38;5091858;28;20446;-64
2022/01/13 03:41:54;;;;;;;24.92;18.58;;;;;;;-0.84;89.60;98861.88;5078004;28;20388;-64
2022/01/13 03:44:28;;;;;;;24.95;19.13;;;;;;;-0.73;89.38;98870.66;5087161;28;20704;-64
2022/01/13 03:47:01;;;;;;;23.48;18.33;;;;;;;-0.66;89.57;98869.28;5091839;28;20732;-63
2022/01/13 03:49:27;;;;;;;24.52;19.65;;;;;;;-0.58;88.49;98865.28;5091819;28;20410;-63
2022/01/13 03:51:54;;;;;;;26.10;19.60;;;;;;;-0.49;88.00;98867.19;5079085;28;20384;-66
2022/01/13 03:54:32;;;;;;;25.30;19.27;;;;;;;-0.75;88.79;98863.03;5071705;28;20388;-63
2022/01/13 03:57:32;;;;;;;26.05;19.73;;;;;;;-0.63;88.61;98864.78;5058659;28;20400;-63
2022/01/13 04:00:41;;;;;;;24.38;19.33;;;;;;;-0.84;88.96;98864.47;5059166;28;20452;-63
2022/01/13 04:03:06;;;;;;;24.85;18.92;;;;;;;-0.62;88.75;98857.88;5085994;28;20447;-65
2022/01/13 04:05:32;;;;;;;24.80;19.33;;;;;;;-0.77;88.73;98854.56;5091614;28;20770;-64
2022/01/13 04:07:57;;;;;;;24.80;19.20;;;;;;;-0.59;89.29;98855.91;5091045;28;20401;-64
2022/01/13 04:11:01;;;;;;;24.47;19.13;;;;;;;-0.60;88.34;98858.56;5091151;28;20405;-64
2022/01/13 04:14:02;;;;;;;25.13;18.40;;;;;;;-0.68;88.42;98866.00;5079515;28;20416;-63
2022/01/13 04:16:24;;;;;;;24.90;18.83;;;;;;;-0.46;87.99;98867.00;5087950;28;20910;-64
2022/01/13 04:18:50;;;;;;;23.70;18.63;;;;;;;-0.34;87.44;98862.75;5091507;28;20398;-64
2022/01/13 04:21:19;;;;;;;25.38;19.50;;;;;;;-0.34;87.24;98859.34;5073159;28;20469;-64
2022/01/13 04:23:45;;;;;;;26.00;19.27;;;;;;;-0.19;86.88;98864.25;5091752;28;20755;-65
2022/01/13 04:26:15;;;;;;;25.73;19.30;;;;;;;-0.43;87.77;98865.97;5091698;28;20727;-64
2022/01/13 04:28:41;;;;;;;24.52;18.48;;;;;;;-0.80;89.60;98865.09;5091139;28;20443;-65
2022/01/13 04:31:06;;;;;;;26.67;18.92;;;;;;;-0.59;89.60;98861.03;5073066;28;20794;-64
2022/01/13 04:33:34;;;;;;;25.20;18.92;;;;;;;-0.83;90.28;98857.56;5091918;28;20912;-64
2022/01/13 04:36:01;;;;;;;25.42;20.15;;;;;;;-0.95;90.85;98863.56;5091364;28;20386;-64
2022/01/13 04:38:26;;;;;;;25.77;19.88;;;;;;;-0.97;91.26;98870.56;5090909;28;20464;-64
2022/01/13 04:40:55;;;;;;;25.38;19.65;;;;;;;-0.76;90.60;98871.66;5090967;28;20437;-66
2022/01/13 04:43:23;;;;;;;25.23;19.10;;;;;;;-0.53;89.09;98873.50;5091031;28;20897;-65
2022/01/13 04:45:49;;;;;;;26.90;18.83;;;;;;;-0.77;90.68;98869.19;5091299;28;20393;-64
2022/01/13 04:48:14;;;;;;;23.98;18.90;;;;;;;-0.62;89.71;98871.56;5091210;28;20393;-65
2022/01/13 04:50:41;;;;;;;23.57;17.97;;;;;;;-0.62;89.76;98869.00;5091003;28;20386;-64
2022/01/13 04:53:07;;;;;;;23.75;18.38;;;;;;;-0.94;91.24;98876.31;5091233;28;20378;-64
2022/01/13 04:55:35;;;;;;;25.13;18.08;;;;;;;-0.64;90.52;98885.47;5095072;28;20473;-64
2022/01/13 04:58:01;;;;;;;23.42;18.52;;;;;;;-0.54;88.77;98892.44;5076639;28;20416;-65
2022/01/13 05:00:28;;;;;;;24.90;18.40;;;;;;;-0.64;89.02;98885.47;5094339;28;20475;-66
2022/01/13 05:02:53;;;;;;;24.73;18.33;;;;;;;-0.63;88.88;98887.94;5094584;28;20381;-65
2022/01/13 05:05:19;;;;;;;24.25;18.27;;;;;;;-0.73;89.37;98891.25;5094677;28;20712;-65
2022/01/13 05:07:45;;;;;;;24.75;18.60;;;;;;;-0.97;90.25;98891.13;5093861;28;20390;-65
2022/01/13 05:10:11;;;;;;;25.50;18.43;;;;;;;-0.82;89.68;98886.69;5094252;28;20882;-65
2022/01/13 05:12:42;;;;;;;22.83;18.30;;;;;;;-0.99;89.97;98882.69;5094693;28;20522;-65
2022/01/13 05:15:10;;;;;;;26.63;19.00;;;;;;;-0.86;89.45;98886.09;5094846;28;20415;-64
2022/01/13 05:20:21;;;;;;;24.67;18.40;;;;;;;-0.97;90.40;98891.97;5079376;28;20442;-64
2022/01/13 05:22:48;;;;;;;25.25;18.70;;;;;;;-1.00;89.97;98889.56;5094373;28;20382;-65
2022/01/13 05:25:14;;;;;;;23.65;17.92;;;;;;;-1.02;91.04;98893.19;5094335;28;20386;-65
2022/01/13 05:27:40;;;;;;;23.92;18.85;;;;;;;-0.34;87.30;98890.28;5094357;28;20386;-65
2022/01/13 05:30:07;;;;;;;26.20;18.67;;;;;;;-0.32;86.77;98896.13;5075874;28;20397;-64
2022/01/13 05:32:32;;;;;;;26.50;18.80;;;;;;;-0.80;88.13;98892.59;5094215;28;20897;-67
2022/01/13 05:34:58;;;;;;;25.37;19.10;;;;;;;-0.84;89.24;98897.91;5094094;28;20437;-64
2022/01/13 05:37:24;;;;;;;27.67;18.70;;;;;;;-0.68;88.56;98900.31;5093664;28;20410;-65
2022/01/13 05:39:49;;;;;;;26.03;19.03;;;;;;;-0.92;89.34;98902.78;5093529;28;20808;-65
2022/01/13 05:42:15;;;;;;;23.95;18.35;;;;;;;-0.95;89.19;98899.59;5075729;28;20390;-64
2022/01/13 05:44:40;;;;;;;22.73;17.63;;;;;;;-0.82;88.83;98904.72;5093807;28;20389;-64
2022/01/13 05:47:08;;;;;;;24.50;18.00;;;;;;;-1.00;89.51;98901.63;5094180;28;20454;-64
2022/01/13 05:49:34;;;;;;;24.35;18.33;;;;;;;-0.87;88.72;98907.59;5093722;28;20378;-65
2022/01/13 05:51:59;;;;;;;22.77;18.17;;;;;;;-1.01;89.09;98912.88;5075274;28;20885;-65
2022/01/13 05:54:24;;;;;;;23.13;18.40;;;;;;;-0.97;88.67;98902.25;5093863;28;20522;-65
2022/01/13 05:56:50;;;;;;;24.40;18.53;;;;;;;-0.77;89.22;98907.81;5093928;28;20409;-65
2022/01/13 05:59:16;;;;;;;23.63;18.77;;;;;;;-0.75;88.66;98906.78;5093468;28;20377;-65
2022/01/13 06:01:42;;;;;;;24.63;18.73;;;;;;;-0.88;89.41;98906.78;5093294;28;20410;-65
2022/01/13 06:04:07;;;;;;;22.95;17.23;;;;;;;-0.94;89.80;98908.94;5093877;28;20397;-65
2022/01/13 06:06:32;;;;;;;24.55;18.38;;;;;;;-0.88;89.42;98908.53;5092438;28;20398;-65
2022/01/13 06:08:58;;;;;;;24.73;18.53;;;;;;;-0.71;88.06;98913.38;5092775;28;20421;-66
2022/01/13 06:11:25;;;;;;;24.03;18.30;;;;;;;-0.92;88.96;98909.66;5093158;28;20390;-65
2022/01/13 06:13:51;;;;;;;23.30;18.13;;;;;;;-0.94;89.15;98908.94;5093512;28;20469;-65
2022/01/13 06:16:16;;;;;;;24.70;18.80;;;;;;;-1.02;89.57;98906.06;5093284;28;20461;-65
2022/01/13 06:18:42;;;;;;;25.27;18.17;;;;;;;-0.83;90.21;98909.03;5075043;28;20382;-65
2022/01/13 06:21:08;;;;;;;24.30;18.27;;;;;;;-0.53;88.10;98908.72;5092381;28;20444;-65
2022/01/13 06:23:33;;;;;;;22.80;18.23;;;;;;;-0.22;86.92;98912.59;5092920;28;20386;-65
2022/01/13 06:25:59;;;;;;;23.90;18.63;;;;;;;-0.44;87.09;98910.66;5092616;28;20386;-65
2022/01/13 06:28:25;;;;;;;24.60;18.58;;;;;;;-0.75;87.35;98909.38;5092234;28;20493;-65
2022/01/13 06:30:51;;;;;;;24.40;17.77;;;;;;;-0.77;88.53;98905.22;5092978;28;20390;-65
2022/01/13 06:33:16;;;;;;;25.00;18.50;;;;;;;-1.00;89.73;98891.31;5074575;28;20389;-65
2022/01/13 06:35:42;;;;;;;25.63;18.90;;;;;;;-0.85;89.21;98898.03;5093022;28;20481;-66
2022/01/13 06:38:07;;;;;;;24.60;18.95;;;;;;;-0.99;89.06;98895.56;5074054;28;20414;-67
2022/01/13 06:40:33;;;;;;;24.65;18.75;;;;;;;-0.65;88.08;98907.81;5092152;28;22176;-65
2022/01/13 06:42:58;;;;;;;25.00;18.40;;;;;;;-0.29;86.29;98914.78;5093094;28;20789;-65
2022/01/13 06:45:24;;;;;;;24.57;18.67;;;;;;;-0.85;88.45;98914.31;5092723;28;20412;-65
2022/01/13 06:47:49;;;;;;;25.90;18.90;;;;;;;-0.87;88.75;98908.44;5074639;28;20397;-65
2022/01/13 06:50:17;;;;;;;27.17;19.57;;;;;;;-0.85;88.62;98910.91;5092068;28;20973;-66
2022/01/13 06:52:43;;;;;;;27.15;19.90;;;;;;;-0.78;88.47;98913.91;5092476;28;20450;-65
2022/01/13 06:55:08;;;;;;;27.13;20.27;;;;;;;-0.47;89.04;98913.47;5074476;28;20738;-65
2022/01/13 06:57:34;;;;;;;26.50;19.50;;;;;;;-0.96;88.87;98914.22;5092875;28;20486;-65
2022/01/13 07:00:00;;;;;;;26.38;19.60;;;;;;;-0.75;88.16;98911.13;5092320;28;20417;-65
2022/01/13 07:02:28;;;;;;;28.92;20.05;;;;;;;-0.92;88.32;98917.38;5091912;28;20885;-65
2022/01/13 07:04:53;;;;;;;26.48;19.73;;;;;;;-0.87;89.14;98917.91;5092118;28;20390;-66
2022/01/13 07:07:19;;;;;;;26.40;20.03;;;;;;;-0.70;87.74;98925.31;5073805;28;20461;-65
2022/01/13 07:09:44;;;;;;;27.52;20.25;;;;;;;-0.63;88.05;98929.13;5091557;28;20390;-66
2022/01/13 07:12:10;;;;;;;25.53;20.47;;;;;;;-0.86;88.57;98933.25;5091481;28;20851;-65
2022/01/13 07:14:36;;;;;;;27.83;21.60;;;;;;;-0.52;87.64;98943.84;5091633;28;20381;-65
2022/01/13 07:17:02;;;;;;;28.37;22.10;;;;;;;-0.95;87.99;98951.06;5091098;28;20398;-65
2022/01/13 07:19:27;;;;;;;29.30;20.52;;;;;;;-0.42;86.47;98974.03;5091707;28;20484;-65
2022/01/13 07:21:53;;;;;;;30.08;20.77;;;;;;;-0.46;86.22;98972.59;5091044;28;20544;-65
2022/01/13 07:24:18;;;;;;;29.70;20.23;;;;;;;-0.71;86.56;98966.59;5091617;28;20396;-66
2022/01/13 07:26:44;;;;;;;26.60;20.10;;;;;;;-0.98;87.46;98974.41;5091926;28;20475;-66
2022/01/13 07:29:09;;;;;;;27.83;20.05;;;;;;;-1.23;88.67;98969.22;5091660;28;20538;-65
2022/01/13 07:31:36;;;;;;;28.42;19.38;;;;;;;-1.17;88.26;98967.03;5092079;28;20394;-66
2022/01/13 07:34:02;;;;;;;24.80;19.02;;;;;;;-1.24;88.31;98976.09;5091803;28;20889;-65
2022/01/13 07:36:28;;;;;;;25.65;18.83;;;;;;;-1.01;86.91;98972.88;5091810;28;20405;-66
2022/01/13 07:38:53;;;;;;;23.52;18.73;;;;;;;-1.11;87.44;98970.97;5091617;28;20433;-66
2022/01/13 07:41:19;;;;;;;25.87;19.87;;;;;;;-1.05;87.71;98970.56;5090503;28;20896;-68
2022/01/13 07:43:48;;;;;;;25.77;19.53;;;;;;;-1.06;87.71;98977.47;5091564;28;20390;-65
2022/01/13 07:46:13;;;;;;;34.28;24.73;;;;;;;-0.35;92.03;98981.34;5071899;28;20405;-74
2022/01/13 07:48:39;;;;;;;27.88;20.40;;;;;;;-0.54;88.29;98976.59;5081905;28;20392;-66
2022/01/13 07:51:04;;;;;;;25.23;19.40;;;;;;;-0.74;87.24;98985.69;5071789;28;20740;-67
2022/01/13 07:53:30;;;;;;;26.33;20.60;;;;;;;-0.14;84.70;98992.78;5088269;28;20784;-67
2022/01/13 07:55:55;;;;;;;25.77;19.80;;;;;;;-0.42;85.91;98988.66;5090337;28;20409;-67
2022/01/13 07:58:20;;;;;;;26.40;19.90;;;;;;;-0.51;86.34;98981.56;5091050;28;20495;-66
2022/01/13 08:00:46;;;;;;;25.73;19.10;;;;;;;-0.48;86.46;98984.75;5090601;28;20434;-68
2022/01/13 08:03:11;;;;;;;26.10;18.67;;;;;;;-0.47;85.36;98983.00;5091317;28;20386;-66
2022/01/13 08:05:37;;;;;;;23.70;18.63;;;;;;;-0.75;86.52;98986.59;5086924;28;20530;-67
2022/01/13 08:08:02;;;;;;;23.55;17.98;;;;;;;-0.48;86.50;98982.19;5070651;28;20414;-67
2022/01/13 08:10:28;;;;;;;23.60;17.53;;;;;;;-0.24;84.82;98976.28;5069428;28;20403;-67
2022/01/13 08:12:53;;;;;;;22.70;17.33;;;;;;;-0.47;86.49;98976.09;5090223;28;20443;-66
2022/01/13 08:15:19;;;;;;;22.00;17.00;;;;;;;-0.17;85.68;98974.97;5084611;28;20883;-67
2022/01/13 08:20:35;;;;;;;23.42;17.45;;;;;;;0.03;84.29;98987.28;5089106;28;20417;-66
2022/01/13 08:23:02;;;;;;;23.67;18.25;;;;;;;-0.12;84.39;98985.78;5078171;28;20813;-66
2022/01/13 08:25:28;;;;;;;22.43;17.83;;;;;;;-0.11;84.21;98989.97;5090902;28;20439;-66
2022/01/13 08:27:54;;;;;;;24.20;18.20;;;;;;;0.23;83.84;98994.44;5073155;28;20473;-66
2022/01/13 08:30:20;;;;;;;23.90;18.13;;;;;;;-0.16;83.42;98984.31;5084722;28;20391;-66
2022/01/13 08:32:46;;;;;;;22.15;18.02;;;;;;;-0.25;84.23;98987.53;5079166;28;20454;-66
2022/01/13 08:35:11;;;;;;;22.57;18.00;;;;;;;0.04;83.32;98988.09;5087266;28;20864;-66
2022/01/13 08:37:37;;;;;;;22.27;17.60;;;;;;;0.24;83.16;98990.13;5074551;28;20395;-66
2022/01/13 08:40:05;;;;;;;21.67;17.50;;;;;;;0.38;81.71;98987.41;5088536;28;20464;-66
2022/01/13 08:42:33;;;;;;;22.77;18.27;;;;;;;-0.08;83.74;98989.78;5086181;28;20486;-66
2022/01/13 08:44:58;;;;;;;23.77;17.77;;;;;;;0.32;81.90;98993.81;5078739;28;20798;-66
2022/01/13 08:47:24;;;;;;;23.03;17.07;;;;;;;-0.01;84.14;98983.28;5090507;28;20390;-66
2022/01/13 08:49:49;;;;;;;23.60;17.47;;;;;;;0.26;83.06;98988.25;5094368;28;20388;-67
2022/01/13 08:52:14;;;;;;;22.30;16.33;;;;;;;0.08;82.76;98985.22;5076594;28;20858;-67
2022/01/13 08:54:45;;;;;;;20.37;15.67;;;;;;;0.47;82.96;98981.59;5094767;28;20386;-66
2022/01/13 08:57:10;;;;;;;22.85;17.13;;;;;;;0.73;80.95;98984.88;5075758;28;20414;-66
2022/01/13 08:59:35;;;;;;;20.50;14.98;;;;;;;0.63;81.02;98984.72;5075158;28;20872;-66
2022/01/13 09:02:01;;;;;;;20.63;15.60;;;;;;;0.79;80.37;98981.84;5088649;28;20889;-66
2022/01/13 09:04:26;;;;;;;20.83;15.87;;;;;;;0.60;80.05;98972.03;5093140;28;20465;-67
2022/01/13 09:06:51;;;;;;;20.97;16.97;;;;;;;0.70;80.24;98972.19;5094164;28;20386;-67
2022/01/13 09:09:17;;;;;;;24.80;18.17;;;;;;;0.52;78.49;98979.50;5092509;28;20493;-66
2022/01/13 09:11:43;;;;;;;23.27;18.02;;;;;;;0.46;79.00;98976.53;5094273;28;20394;-66
2022/01/13 09:14:09;;;;;;;24.60;18.60;;;;;;;0.11;79.96;98974.69;5094622;28;20569;-66
2022/01/13 09:16:42;;;;;;;24.92;18.02;;;;;;;0.28;79.81;98979.47;5093118;28;20417;-66
2022/01/13 09:19:12;;;;;;;23.52;17.80;;;;;;;0.28;80.25;98964.00;5092125;28;20397;-67
2022/01/13 09:21:41;;;;;;;22.23;17.55;;;;;;;0.39;79.01;98971.00;5092976;28;20435;-66
2022/01/13 09:24:15;;;;;;;22.13;16.65;;;;;;;0.53;78.76;98964.84;5075158;28;20386;-66
2022/01/13 09:26:41;;;;;;;20.63;16.27;;;;;;;0.61;79.08;98959.97;5075233;28;20524;-66
2022/01/13 09:29:08;;;;;;;22.35;16.83;;;;;;;0.67;79.22;98956.94;5086372;28;20449;-67
2022/01/13 09:31:35;;;;;;;23.60;18.10;;;;;;;1.01;76.62;98961.28;5074082;28;20470;-67
2022/01/13 09:34:02;;;;;;;23.17;17.27;;;;;;;0.51;78.00;98969.28;5073773;28;20948;-67
2022/01/13 09:36:29;;;;;;;22.58;17.40;;;;;;;0.95;77.33;98966.88;5072141;28;20481;-67
2022/01/13 09:38:55;;;;;;;20.92;16.65;;;;;;;0.93;77.54;98960.22;5079218;28;20408;-67
2022/01/13 09:41:22;;;;;;;20.85;16.33;;;;;;;1.01;77.49;98960.44;5055683;28;20811;-67
2022/01/13 09:43:48;;;;;;;20.77;16.17;;;;;;;0.63;79.05;98958.09;5084286;28;20385;-66
2022/01/13 09:46:13;;;;;;;19.90;15.70;;;;;;;0.85;78.89;98947.84;5093263;28;20471;-68
2022/01/13 09:48:40;;;;;;;21.77;16.20;;;;;;;1.04;77.74;98953.31;5080815;28;20880;-66
2022/01/13 09:51:06;;;;;;;21.33;15.95;;;;;;;0.90;77.85;98950.09;5083430;28;20901;-67
2022/01/13 09:53:32;;;;;;;21.85;16.60;;;;;;;0.86;78.45;98959.81;5082142;28;20391;-67
2022/01/13 09:55:58;;;;;;;20.27;15.82;;;;;;;0.78;78.59;98962.16;5086593;28;20393;-66
2022/01/13 09:58:23;;;;;;;21.80;16.70;;;;;;;1.05;77.30;98956.72;5073752;28;20384;-66
2022/01/13 10:00:49;;;;;;;20.70;16.13;;;;;;;0.76;78.07;98949.34;5080668;28;20783;-67
2022/01/13 10:03:25;;;;;;;20.80;16.23;;;;;;;0.71;78.97;98948.88;5079053;28;20895;-66
2022/01/13 10:05:52;;;;;;;21.55;16.45;;;;;;;1.02;76.94;98950.00;5084662;28;20401;-66
2022/01/13 10:08:21;;;;;;;21.67;15.68;;;;;;;1.12;76.86;98958.72;5079248;28;20421;-66
2022/01/13 10:10:47;;;;;;;20.08;15.50;;;;;;;1.14;76.63;98950.88;5086599;28;20463;-66
2022/01/13 10:13:22;;;;;;;20.17;15.70;;;;;;;0.81;78.25;98943.84;5074542;28;20396;-67
2022/01/13 10:18:37;;;;;;;18.48;14.40;;;;;;;1.16;77.44;98943.84;5087406;28;20433;-66
2022/01/13 10:21:12;;;;;;;19.97;15.17;;;;;;;0.93;78.88;98940.38;5081719;28;20403;-66
2022/01/13 10:24:12;;;;;;;19.50;14.87;;;;;;;0.76;79.88;98936.47;5077956;28;20874;-65
2022/01/13 10:26:40;;;;;;;18.10;14.33;;;;;;;1.02;78.97;98934.53;5088916;28;20430;-67
2022/01/13 10:29:07;;;;;;;19.83;14.45;;;;;;;1.49;77.50;98935.31;5074762;28;20791;-67
2022/01/13 10:32:02;;;;;;;20.40;14.77;;;;;;;1.24;77.86;98932.00;5092897;28;20426;-66
2022/01/13 10:34:28;;;;;;;15.40;11.63;;;;;;;1.12;78.73;98943.22;5072085;28;20192;-65
2022/01/13 10:36:58;;;;;;;;;;;;;;;1.09;78.67;98940.06;5094824;28;20032;-66
2022/01/13 10:39:44;;;;;;;15.70;11.50;;;;;;;1.23;77.64;98942.44;5094054;28;20211;-67
2022/01/13 10:44:59;;;;;;;18.48;14.65;;;;;;;0.95;78.75;98937.69;5061506;28;20791;-66
2022/01/13 10:47:26;;;;;;;18.55;13.73;;;;;;;0.98;78.11;98940.03;5088204;28;20378;-66
2022/01/13 10:49:52;;;;;;;16.50;13.50;;;;;;;0.72;79.64;98936.78;5073508;28;20442;-66
2022/01/13 10:52:26;;;;;;;18.00;13.65;;;;;;;0.95;79.51;98937.69;5073276;28;20427;-66
2022/01/13 10:54:52;;;;;;;18.13;14.00;;;;;;;1.20;78.68;98943.50;5082180;28;20398;-66
2022/01/13 10:57:24;;;;;;;18.95;14.75;;;;;;;1.22;77.64;98938.22;5081289;28;20785;-66
2022/01/13 10:59:50;;;;;;;18.15;14.20;;;;;;;1.19;77.74;98939.25;5091888;28;20790;-66
2022/01/13 11:02:18;;;;;;;18.23;14.32;;;;;;;1.75;76.58;98939.31;5092329;28;20424;-66
2022/01/13 11:04:44;;;;;;;19.38;14.77;;;;;;;1.78;76.57;98939.09;5092084;28;20493;-66
2022/01/13 11:07:15;;;;;;;17.73;13.63;;;;;;;1.48;77.16;98942.25;5091948;28;20465;-66
2022/01/13 11:09:43;;;;;;;18.33;14.57;;;;;;;1.74;76.84;98934.25;5081696;28;20904;-66
2022/01/13 11:12:13;;;;;;;20.05;15.52;;;;;;;1.86;76.48;98934.13;5091208;28;20467;-66
2022/01/13 11:14:45;;;;;;;18.67;14.55;;;;;;;1.97;75.84;98934.13;5092005;28;20398;-67
2022/01/13 11:17:11;;;;;;;18.85;14.50;;;;;;;1.89;75.30;98936.50;5091983;28;20465;-67
2022/01/13 11:19:39;;;;;;;19.25;14.48;;;;;;;1.77;76.19;98939.19;5092069;28;20897;-67
2022/01/13 11:22:05;;;;;;;17.57;13.90;;;;;;;1.90;76.41;98938.13;5091936;28;20438;-67
2022/01/13 11:24:30;;;;;;;18.37;13.87;;;;;;;1.59;77.44;98947.41;5091451;28;20394;-67
2022/01/13 11:26:56;;;;;;;19.63;16.00;;;;;;;1.85;75.70;98945.41;5091929;28;20435;-67
2022/01/13 11:29:23;;;;;;;19.15;15.02;;;;;;;2.06;75.14;98942.94;5091081;28;20457;-67
2022/01/13 11:31:50;;;;;;;19.77;15.52;;;;;;;2.10;75.02;98957.28;5091383;28;20893;-67
2022/01/13 11:34:17;;;;;;;18.83;15.33;;;;;;;2.31;74.83;98953.00;5091776;28;20442;-67
2022/01/13 11:36:43;;;;;;;20.65;15.60;;;;;;;2.51;73.68;98951.41;5091445;28;20866;-67
2022/01/13 11:39:10;;;;;;;19.55;15.70;;;;;;;2.46;73.93;98949.19;5091246;28;20505;-66
2022/01/13 11:42:16;;;;;;;19.83;15.95;;;;;;;2.32;75.34;98948.66;5091011;28;20406;-67
2022/01/13 11:44:42;;;;;;;22.67;16.20;;;;;;;2.06;74.68;98954.09;5091329;28;20402;-67
2022/01/13 11:47:25;;;;;;;20.10;15.95;;;;;;;2.06;74.34;98959.25;5091542;28;20446;-68
2022/01/13 11:50:03;;;;;;;21.73;15.83;;;;;;;2.18;75.23;98961.81;5091167;28;20419;-67
2022/01/13 11:52:42;;;;;;;19.98;15.05;;;;;;;2.52;73.47;98955.63;5090658;28;20378;-67